Time;durP1;ratioP1;P1;durP2;ratioP2;P2;SDS_P1;SDS_P2;PMS_P1;PMS_P2;Temp;Humidity;BMP_temperature;BMP_pressure;BME280_temperature;BME280_humidity;BME280_pressure;Samples;Min_cycle;Max_cycle;Signal;HPM_P1;HPM_P2
2023/01/24 00:00:56;;;;;;;;;;;;;;;2.99;88.28;103753.28;5066106;28;19925;-63
2023/01/24 00:03:21;;;;;;;;;;;;;;;2.77;88.09;103756.66;5069007;28;20367;-63
2023/01/24 00:05:47;;;;;;;;;;;;;;;2.85;88.66;103759.72;5069740;28;20275;-62
2023/01/24 00:08:13;;;;;;;;;;;;;;;3.17;87.15;103751.97;5070397;28;20355;-64
2023/01/24 00:10:38;;;;;;;;;;;;;;;2.87;87.77;103746.88;5068997;28;19967;-63
2023/01/24 00:13:04;;;;;;;;;;;;;;;3.18;86.58;103750.09;5068043;28;19955;-63
2023/01/24 00:15:30;;;;;;;;;;;;;;;3.06;87.05;103755.44;5069435;28;19931;-64
2023/01/24 00:17:55;;;;;;;;;;;;;;;2.64;89.75;103756.66;5069399;28;20329;-63
2023/01/24 00:20:20;;;;;;;;;;;;;;;2.53;90.09;103764.66;5070890;28;19916;-64
2023/01/24 00:22:45;;;;;;;;;;;;;;;3.01;89.05;103754.91;5069122;28;20448;-63
2023/01/24 00:25:11;;;;;;;;;;;;;;;2.51;90.36;103755.75;5068413;28;19920;-65
2023/01/24 00:27:36;;;;;;;;;;;;;;;3.01;87.17;103749.47;5069817;28;19920;-63
2023/01/24 00:30:02;;;;;;;;;;;;;;;3.06;88.11;103746.44;5066839;28;20355;-63
2023/01/24 00:32:27;;;;;;;;;;;;;;;2.83;88.43;103746.22;5068079;28;20016;-64
2023/01/24 00:34:53;;;;;;;;;;;;;;;2.52;90.52;103742.09;5069504;28;19923;-63
2023/01/24 00:37:18;;;;;;;;;;;;;;;2.36;91.48;103740.53;5067712;28;19924;-64
2023/01/24 00:39:43;;;;;;;;;;;;;;;2.71;89.37;103729.94;5058258;28;19921;-63
2023/01/24 00:42:08;;;;;;;;;;;;;;;2.76;90.08;103727.78;5068662;28;20341;-63
2023/01/24 00:44:33;;;;;;;;;;;;;;;2.63;90.34;103733.19;5070218;28;19927;-64
2023/01/24 00:46:58;;;;;;;;;;;;;;;2.43;90.80;103728.28;5068923;28;19924;-64
2023/01/24 00:49:24;;;;;;;;;;;;;;;2.62;90.29;103734.16;5069695;28;19916;-63
2023/01/24 00:51:49;;;;;;;;;;;;;;;2.31;92.60;103735.44;5065851;28;19929;-63
2023/01/24 00:54:14;;;;;;;;;;;;;;;2.73;90.36;103733.41;5069767;28;19968;-62
2023/01/24 00:56:39;;;;;;;;;;;;;;;2.99;89.72;103729.72;5066316;28;20260;-65
2023/01/24 00:59:04;;;;;;;;;;;;;;;3.29;85.81;103731.19;5070432;28;19917;-63
2023/01/24 01:01:29;;;;;;;;;;;;;;;2.64;88.82;103731.38;5065533;28;20007;-63
2023/01/24 01:03:56;;;;;;;;;;;;;;;2.78;87.95;103720.38;5069785;28;19920;-63
2023/01/24 01:06:21;;;;;;;;;;;;;;;2.41;90.40;103722.13;5064095;28;20286;-63
2023/01/24 01:08:46;;;;;;;;;;;;;;;2.88;88.05;103717.88;5069816;28;19923;-63
2023/01/24 01:11:11;;;;;;;;;;;;;;;2.83;87.96;103712.78;5067013;28;20340;-63
2023/01/24 01:13:37;;;;;;;;;;;;;;;2.32;90.88;103716.34;5069254;28;19942;-67
2023/01/24 01:16:07;;;;;;;;;;;;;;;2.58;88.83;103711.81;5068109;28;19928;-64
2023/01/24 01:18:32;;;;;;;;;;;;;;;2.83;88.41;103713.66;5064493;28;19921;-63
2023/01/24 01:20:58;;;;;;;;;;;;;;;2.78;88.15;103709.53;5061366;28;20279;-64
2023/01/24 01:23:23;;;;;;;;;;;;;;;2.34;90.14;103717.13;5069424;28;19920;-63
2023/01/24 01:25:48;;;;;;;;;;;;;;;2.72;89.48;103708.13;5065892;28;20003;-63
2023/01/24 01:28:13;;;;;;;;;;;;;;;2.44;90.43;103725.50;5068685;28;20400;-65
2023/01/24 01:30:39;;;;;;;;;;;;;;;2.63;88.82;103725.03;5064804;28;19928;-65
2023/01/24 01:33:04;;;;;;;;;;;;;;;2.45;90.78;103724.50;5065543;28;20337;-63
2023/01/24 01:35:29;;;;;;;;;;;;;;;2.45;91.92;103720.94;5069661;28;19916;-63
2023/01/24 01:37:54;;;;;;;;;;;;;;;2.93;88.66;103724.72;5068409;28;19917;-63
2023/01/24 01:40:19;;;;;;;;;;;;;;;3.04;88.01;103716.69;5067585;28;19928;-64
2023/01/24 01:42:48;;;;;;;;;;;;;;;2.50;89.26;103722.34;5067706;28;19967;-64
2023/01/24 01:45:32;;;;;;;;;;;;;;;2.75;88.61;103720.63;5063328;28;19920;-62
2023/01/24 01:47:57;;;;;;;;;;;;;;;2.62;89.94;103725.16;5049514;28;20395;-66
2023/01/24 01:50:29;;;;;;;;;;;;;;;2.71;88.70;103714.53;5067176;28;19928;-63
2023/01/24 01:52:56;;;;;;;;;;;;;;;3.04;88.37;103722.13;5067850;28;20359;-63
2023/01/24 01:55:24;;;;;;;;;;;;;;;2.37;91.27;103720.59;5067409;28;20325;-63
2023/01/24 01:57:51;;;;;;;;;;;;;;;2.26;91.71;103722.19;5066272;28;19968;-63
2023/01/24 02:00:17;;;;;;;;;;;;;;;2.64;90.27;103717.81;5067530;28;19920;-64
2023/01/24 02:02:47;;;;;;;;;;;;;;;2.96;89.22;103713.66;5066307;28;19920;-65
2023/01/24 02:05:14;;;;;;;;;;;;;;;2.53;90.63;103719.41;5067994;28;19951;-63
2023/01/24 02:07:42;;;;;;;;;;;;;;;2.90;89.42;103705.09;5067527;28;19986;-63
2023/01/24 02:10:08;;;;;;;;;;;;;;;2.62;89.90;103715.19;5062802;28;20651;-65
2023/01/24 02:12:38;;;;;;;;;;;;;;;2.56;91.02;103711.06;5067480;28;20023;-66
2023/01/24 02:17:50;;;;;;;;;;;;;;;2.68;89.95;103713.88;5047830;28;19966;-63
2023/01/24 02:20:34;;;;;;;;;;;;;;;2.59;90.15;103712.69;5057519;28;19923;-64
2023/01/24 02:23:26;;;;;;;;;;;;;;;2.64;90.32;103707.81;5067662;28;19924;-63
2023/01/24 02:26:01;;;;;;;;;;;;;;;2.85;89.59;103700.84;5057928;28;19927;-64
2023/01/24 02:28:26;;;;;;;;;;;;;;;2.39;90.84;103711.38;5067571;28;20330;-63
2023/01/24 02:30:55;;;;;;;;;;;;;;;2.21;92.37;103705.38;5065846;28;19920;-63
2023/01/24 02:33:20;;;;;;;;;;;;;;;2.64;91.42;103717.81;5068233;28;19944;-63
2023/01/24 02:35:46;;;;;;;;;;;;;;;2.69;89.36;103715.63;5068302;28;19963;-63
2023/01/24 02:38:18;;;;;;;;;;;;;;;2.33;91.13;103717.22;5067819;28;20347;-64
2023/01/24 02:40:45;;;;;;;;;;;;;;;2.17;92.90;103721.94;5054290;28;19916;-63
2023/01/24 02:43:12;;;;;;;;;;;;;;;2.84;91.45;103709.13;5066532;28;19990;-63
2023/01/24 02:45:37;;;;;;;;;;;;;;;2.38;91.51;103716.88;5066185;28;20028;-64
2023/01/24 02:48:03;;;;;;;;;;;;;;;2.18;92.93;103720.97;5067890;28;20403;-63
2023/01/24 02:53:28;;;;;;;;;;;;;;;2.12;92.99;103715.97;5066862;28;19931;-64
2023/01/24 02:53:30;;;;;;;;;;;;;;;2.18;93.62;103721.88;5065724;28;19925;-63
2023/01/24 02:58:43;;;;;;;;;;;;;;;2.20;92.69;103709.06;5066261;28;20302;-63
2023/01/24 03:01:09;;;;;;;;;;;;;;;2.14;93.18;103708.63;5066532;28;20007;-63
2023/01/24 03:03:34;;;;;;;;;;;;;;;2.62;90.31;103714.31;5067793;28;19921;-65
2023/01/24 03:06:00;;;;;;;;;;;;;;;2.21;93.33;103713.50;5066172;28;19920;-64
2023/01/24 03:08:26;;;;;;;;;;;;;;;2.57;91.61;103717.34;5065669;28;19920;-65
2023/01/24 03:10:52;;;;;;;;;;;;;;;2.55;91.31;103713.88;5066569;28;20362;-65
2023/01/24 03:35:09;;;;;;;;;;;;;;;2.21;93.35;103710.78;5051451;28;20287;-63
2023/01/24 03:40:18;;;;;;;;;;;;;;;1.89;94.98;103709.44;5069511;28;20017;-63
2023/01/24 03:42:49;;;;;;;;;;;;;;;1.87;95.87;103717.63;5068506;28;20010;-64
2023/01/24 03:45:25;;;;;;;;;;;;;;;1.87;96.22;103708.63;5065229;28;19920;-63
2023/01/24 03:47:54;;;;;;;;;;;;;;;1.83;96.47;103702.56;5069440;28;20517;-63
2023/01/24 03:53:15;;;;;;;;;;;;;;;1.80;97.15;103708.19;5069518;28;19942;-62
2023/01/24 03:55:40;;;;;;;;;;;;;;;1.90;96.73;103708.44;5069474;28;19940;-64
2023/01/24 03:58:06;;;;;;;;;;;;;;;1.77;96.84;103711.09;5069448;28;19921;-62
2023/01/24 04:00:31;;;;;;;;;;;;;;;1.75;96.73;103713.06;5069018;28;19929;-63
2023/01/24 04:02:57;;;;;;;;;;;;;;;1.79;96.95;103706.47;5066327;28;19935;-63
2023/01/24 04:05:22;;;;;;;;;;;;;;;2.24;92.24;103704.31;5071628;28;19955;-63
2023/01/24 04:07:47;;;;;;;;;;;;;;;1.88;94.75;103716.69;5069652;28;20017;-63
2023/01/24 04:10:13;;;;;;;;;;;;;;;1.85;95.30;103706.03;5069611;28;20418;-63
2023/01/24 04:12:39;;;;;;;;;;;;;;;1.95;94.06;103703.59;5069588;28;20287;-64
2023/01/24 04:15:04;;;;;;;;;;;;;;;2.36;93.29;103700.72;5065906;28;19927;-65
2023/01/24 04:17:29;;;;;;;;;;;;;;;1.93;95.15;103701.00;5067789;28;19927;-64
2023/01/24 04:19:55;;;;;;;;;;;;;;;1.78;96.06;103710.16;5069808;28;19920;-63
2023/01/24 04:22:20;;;;;;;;;;;;;;;2.15;95.33;103705.81;5070167;28;19920;-63
2023/01/24 04:24:45;;;;;;;;;;;;;;;1.85;95.18;103710.59;5070270;28;19917;-62
2023/01/24 04:27:11;;;;;;;;;;;;;;;1.73;95.86;103715.88;5068974;28;19921;-63
2023/01/24 04:29:36;;;;;;;;;;;;;;;1.76;96.17;103714.78;5070941;28;19946;-64
2023/01/24 04:32:01;;;;;;;;;;;;;;;1.76;95.74;103715.66;5068736;28;20027;-63
2023/01/24 04:34:27;;;;;;;;;;;;;;;1.69;96.26;103713.47;5069193;28;19975;-63
2023/01/24 04:36:52;;;;;;;;;;;;;;;1.88;95.58;103719.41;5063423;28;20355;-62
2023/01/24 04:39:17;;;;;;;;;;;;;;;1.78;95.56;103716.44;5070006;28;20363;-64
2023/01/24 04:41:42;;;;;;;;;;;;;;;1.68;96.22;103726.16;5051111;28;19927;-63
2023/01/24 04:44:07;;;;;;;;;;;;;;;1.66;96.75;103719.06;5049984;28;19975;-63
2023/01/24 04:46:33;;;;;;;;;;;;;;;1.73;96.90;103720.44;5048344;28;19966;-63
2023/01/24 04:48:58;;;;;;;;;;;;;;;1.98;94.67;103722.34;5049670;28;19924;-64
2023/01/24 04:51:23;;;;;;;;;;;;;;;1.66;96.50;103719.94;5049147;28;20318;-63
2023/01/24 04:53:48;;;;;;;;;;;;;;;1.73;96.95;103718.59;5049239;28;19940;-63
2023/01/24 04:56:13;;;;;;;;;;;;;;;1.64;97.09;103719.19;5048859;28;20534;-63
2023/01/24 04:58:39;;;;;;;;;;;;;;;1.78;96.06;103721.00;5048865;28;20407;-64
2023/01/24 05:01:04;;;;;;;;;;;;;;;1.88;96.38;103722.09;5048802;28;19917;-62
2023/01/24 05:03:29;;;;;;;;;;;;;;;1.66;96.96;103719.06;5049725;28;20000;-61
2023/01/24 05:05:55;;;;;;;;;;;;;;;1.91;95.68;103713.75;5048429;28;19917;-61
2023/01/24 05:08:20;;;;;;;;;;;;;;;1.75;95.85;103707.63;5049531;28;19917;-62
2023/01/24 05:10:45;;;;;;;;;;;;;;;1.71;97.01;103719.63;5048749;28;20360;-62
2023/01/24 05:13:10;;;;;;;;;;;;;;;1.77;96.23;103725.53;5048725;28;19924;-61
2023/01/24 05:15:36;;;;;;;;;;;;;;;1.85;95.31;103718.72;5048726;28;19924;-62
2023/01/24 05:18:01;;;;;;;;;;;;;;;1.74;96.70;103727.56;5048754;28;20325;-62
2023/01/24 05:20:26;;;;;;;;;;;;;;;1.65;97.28;103730.88;5048598;28;19929;-60
2023/01/24 05:22:54;;;;;;;;;;;;;;;1.69;96.52;103729.72;5048418;28;19913;-62
2023/01/24 05:25:19;;;;;;;;;;;;;;;1.90;96.72;103732.84;5048636;28;19917;-61
2023/01/24 05:27:45;;;;;;;;;;;;;;;1.94;96.07;103732.53;5048142;28;19928;-60
2023/01/24 05:30:10;;;;;;;;;;;;;;;2.55;93.28;103725.59;5047212;28;19970;-62
2023/01/24 05:32:36;;;;;;;;;;;;;;;2.06;93.96;103728.97;5048694;28;20632;-60
2023/01/24 05:35:01;;;;;;;;;;;;;;;1.95;93.93;103734.25;5048384;28;19920;-64
2023/01/24 05:37:26;;;;;;;;;;;;;;;1.66;96.18;103724.50;5047811;28;20327;-61
2023/01/24 05:39:51;;;;;;;;;;;;;;;1.62;96.84;103734.66;5048504;28;19916;-62
2023/01/24 05:42:17;;;;;;;;;;;;;;;1.64;97.09;103740.84;5062915;28;19920;-61
2023/01/24 05:44:42;;;;;;;;;;;;;;;1.82;95.33;103738.75;5047900;28;19916;-63
2023/01/24 05:47:07;;;;;;;;;;;;;;;2.00;95.78;103736.66;5046317;28;19921;-62
2023/01/24 05:49:32;;;;;;;;;;;;;;;2.28;93.30;103736.53;5060592;28;19962;-62
2023/01/24 05:51:57;;;;;;;;;;;;;;;2.30;92.19;103739.13;5067496;28;20410;-63
2023/01/24 05:54:22;;;;;;;;;;;;;;;2.60;91.27;103737.00;5066710;28;19916;-64
2023/01/24 05:56:48;;;;;;;;;;;;;;;2.44;91.91;103747.19;5047543;28;20350;-62
2023/01/24 05:59:13;;;;;;;;;;;;;;;2.07;94.22;103762.38;5058899;28;19921;-63
2023/01/24 06:01:38;;;;;;;;;;;;;;;2.54;91.94;103755.56;5058457;28;19935;-64
2023/01/24 06:04:04;;;;;;;;;;;;;;;2.02;93.52;103753.69;5060388;28;19928;-62
2023/01/24 06:06:29;;;;;;;;;;;;;;;1.69;94.59;103760.38;5049707;28;19931;-62
2023/01/24 06:08:54;;;;;;;;;;;;;;;1.73;95.10;103759.22;5049381;28;19927;-63
2023/01/24 06:11:21;;;;;;;;;;;;;;;1.66;95.57;103762.41;5059335;28;19920;-64
2023/01/24 06:13:47;;;;;;;;;;;;;;;1.52;96.66;103761.50;5050127;28;19959;-64
2023/01/24 06:16:14;;;;;;;;;;;;;;;2.47;93.10;103754.22;5061820;28;20437;-62
2023/01/24 06:18:39;;;;;;;;;;;;;;;2.11;95.32;103763.03;5058667;28;19998;-64
2023/01/24 06:21:12;;;;;;;;;;;;;;;2.25;94.08;103771.13;5048307;28;19921;-63
2023/01/24 06:23:37;;;;;;;;;;;;;;;2.28;93.80;103758.22;5048454;28;20292;-63
2023/01/24 06:26:02;;;;;;;;;;;;;;;1.76;94.92;103760.84;5046489;28;19923;-62
2023/01/24 06:28:28;;;;;;;;;;;;;;;1.63;95.70;103762.63;5047713;28;19920;-62
2023/01/24 06:31:01;;;;;;;;;;;;;;;1.90;95.58;103765.34;5046455;28;19957;-63
2023/01/24 06:33:41;;;;;;;;;;;;;;;1.56;96.13;103768.44;5047669;28;20011;-63
2023/01/24 06:36:14;;;;;;;;;;;;;;;1.58;97.61;103770.19;5047861;28;19960;-63
2023/01/24 06:38:40;;;;;;;;;;;;;;;2.25;94.61;103776.53;5047489;28;20304;-63
2023/01/24 06:41:12;;;;;;;;;;;;;;;2.03;94.19;103771.72;5047363;28;19917;-64
2023/01/24 06:43:38;;;;;;;;;;;;;;;1.79;96.26;103771.50;5048198;28;19939;-66
2023/01/24 06:46:03;;;;;;;;;;;;;;;1.57;96.65;103780.13;5047094;28;19917;-63
2023/01/24 06:48:28;;;;;;;;;;;;;;;2.08;96.16;103775.84;5047214;28;19975;-63
2023/01/24 06:50:53;;;;;;;;;;;;;;;1.65;96.16;103771.53;5046992;28;19956;-62
2023/01/24 06:53:19;;;;;;;;;;;;;;;1.98;95.37;103780.16;5047372;28;19913;-63
2023/01/24 06:55:45;;;;;;;;;;;;;;;2.07;93.57;103768.66;5046685;28;20008;-62
2023/01/24 06:58:10;;;;;;;;;;;;;;;2.26;93.50;103770.13;5046653;28;19956;-64
2023/01/24 07:00:35;;;;;;;;;;;;;;;2.44;91.64;103768.91;5047024;28;20009;-63
2023/01/24 07:03:02;;;;;;;;;;;;;;;1.81;93.49;103775.81;5047065;28;19970;-62
2023/01/24 07:05:27;;;;;;;;;;;;;;;1.90;94.07;103781.63;5047323;28;19927;-64
2023/01/24 07:07:53;;;;;;;;;;;;;;;2.42;91.65;103778.09;5046787;28;20291;-63
2023/01/24 07:10:18;;;;;;;;;;;;;;;1.82;93.41;103784.81;5047322;28;19918;-63
2023/01/24 07:12:43;;;;;;;;;;;;;;;2.04;93.68;103784.28;5046458;28;20008;-62
2023/01/24 07:15:08;;;;;;;;;;;;;;;1.76;94.02;103786.09;5045859;28;19939;-66
2023/01/24 07:17:34;;;;;;;;;;;;;;;1.84;94.60;103790.16;5047505;28;19924;-63
2023/01/24 07:19:59;;;;;;;;;;;;;;;1.73;94.21;103796.28;5046668;28;19960;-64
2023/01/24 07:22:25;;;;;;;;;;;;;;;2.17;93.01;103806.00;5047165;28;19924;-62
2023/01/24 07:24:50;;;;;;;;;;;;;;;2.07;94.09;103811.16;5047015;28;20291;-62
2023/01/24 07:27:15;;;;;;;;;;;;;;;1.90;94.42;103806.00;5046166;28;19916;-64
2023/01/24 07:29:41;;;;;;;;;;;;;;;1.42;95.50;103822.66;5046264;28;20272;-62
2023/01/24 07:32:06;;;;;;;;;;;;;;;1.33;96.67;103812.41;5047019;28;19924;-63
2023/01/24 07:34:31;;;;;;;;;;;;;;;1.27;98.16;103815.50;5047196;28;19931;-62
2023/01/24 07:36:56;;;;;;;;;;;;;;;1.24;98.59;103815.69;5046924;28;19924;-64
2023/01/24 07:39:21;;;;;;;;;;;;;;;1.30;98.22;103816.16;5046661;28;19921;-63
2023/01/24 07:41:47;;;;;;;;;;;;;;;1.21;99.08;103808.59;5046488;28;19939;-63
2023/01/24 07:44:13;;;;;;;;;;;;;;;1.37;98.29;103821.16;5061976;28;19963;-62
2023/01/24 07:46:38;;;;;;;;;;;;;;;1.23;99.50;103827.47;5045990;28;19956;-66
2023/01/24 07:49:03;;;;;;;;;;;;;;;1.38;99.19;103828.34;5047312;28;20283;-62
2023/01/24 07:51:29;;;;;;;;;;;;;;;1.29;100.00;103819.84;5046547;28;20375;-63
2023/01/24 07:53:54;;;;;;;;;;;;;;;1.26;99.49;103821.84;5045105;28;20003;-63
2023/01/24 07:56:19;;;;;;;;;;;;;;;1.30;99.44;103829.69;5046551;28;19917;-62
2023/01/24 07:58:44;;;;;;;;;;;;;;;1.29;99.60;103827.09;5046446;28;19921;-64
2023/01/24 08:01:15;;;;;;;;;;;;;;;1.29;100.00;103830.66;5045956;28;20430;-62
2023/01/24 08:03:40;;;;;;;;;;;;;;;1.26;100.00;103840.81;5046259;28;19924;-63
2023/01/24 08:06:05;;;;;;;;;;;;;;;1.25;100.00;103844.50;5047072;28;19917;-63
2023/01/24 08:08:30;;;;;;;;;;;;;;;1.31;100.00;103838.69;5047503;28;20038;-62
2023/01/24 08:10:55;;;;;;;;;;;;;;;1.35;100.00;103834.81;5049286;28;19917;-63
2023/01/24 08:13:21;;;;;;;;;;;;;;;1.49;100.00;103837.53;5050159;28;20376;-65
2023/01/24 08:15:47;;;;;;;;;;;;;;;1.77;97.29;103831.22;5049081;28;19923;-62
2023/01/24 08:18:12;;;;;;;;;;;;;;;1.64;97.53;103834.81;5050187;28;19917;-63
2023/01/24 08:20:37;;;;;;;;;;;;;;;1.75;97.73;103837.69;5069127;28;19991;-63
2023/01/24 08:23:02;;;;;;;;;;;;;;;1.50;97.42;103839.25;5047901;28;19923;-63
2023/01/24 08:25:30;;;;;;;;;;;;;;;2.26;93.69;103833.38;5048057;28;19921;-63
2023/01/24 08:27:55;;;;;;;;;;;;;;;1.74;95.53;103844.94;5047384;28;19952;-63
2023/01/24 08:30:20;;;;;;;;;;;;;;;1.51;97.18;103841.00;5047467;28;19994;-62
2023/01/24 08:32:45;;;;;;;;;;;;;;;1.88;94.42;103844.06;5047987;28;19924;-62
2023/01/24 08:35:10;;;;;;;;;;;;;;;1.54;95.76;103842.66;5047357;28;20001;-63
2023/01/24 08:37:35;;;;;;;;;;;;;;;1.84;94.70;103850.66;5047954;28;20004;-63
2023/01/24 08:40:01;;;;;;;;;;;;;;;1.58;95.65;103851.47;5047741;28;20007;-63
2023/01/24 08:42:26;;;;;;;;;;;;;;;1.87;93.90;103854.97;5047190;28;19917;-62
2023/01/24 08:44:51;;;;;;;;;;;;;;;1.51;96.03;103862.66;5046981;28;19948;-63
2023/01/24 08:47:17;;;;;;;;;;;;;;;1.47;95.21;103866.56;5047294;28;19978;-62
2023/01/24 08:49:42;;;;;;;;;;;;;;;1.28;97.31;103863.25;5046303;28;19916;-63
2023/01/24 08:52:07;;;;;;;;;;;;;;;1.24;97.86;103867.97;5048059;28;19917;-63
2023/01/24 08:54:34;;;;;;;;;;;;;;;1.35;98.32;103867.31;5047632;28;19921;-62
2023/01/24 08:57:00;;;;;;;;;;;;;;;2.02;92.82;103867.53;5046636;28;19960;-63
2023/01/24 08:59:26;;;;;;;;;;;;;;;1.35;96.55;103875.44;5046935;28;20243;-62
2023/01/24 09:01:51;;;;;;;;;;;;;;;1.30;97.68;103873.00;5047368;28;19924;-63
2023/01/24 09:04:16;;;;;;;;;;;;;;;1.28;98.47;103877.66;5047610;28;20584;-62
2023/01/24 09:06:41;;;;;;;;;;;;;;;1.25;98.42;103871.56;5046678;28;19923;-63
2023/01/24 09:09:06;;;;;;;;;;;;;;;1.27;98.75;103875.06;5047704;28;19982;-62
2023/01/24 09:11:32;;;;;;;;;;;;;;;1.37;99.32;103875.31;5047183;28;19920;-64
2023/01/24 09:13:57;;;;;;;;;;;;;;;1.36;99.22;103881.72;5046844;28;20408;-63
2023/01/24 09:16:22;;;;;;;;;;;;;;;1.37;99.99;103872.63;5061828;28;20366;-62
2023/01/24 09:18:50;;;;;;;;;;;;;;;1.50;99.01;103870.91;5046445;28;19917;-63
2023/01/24 09:21:16;;;;;;;;;;;;;;;1.52;97.51;103874.38;5047141;28;19923;-62
2023/01/24 09:23:41;;;;;;;;;;;;;;;1.42;98.87;103870.50;5046514;28;20063;-65
2023/01/24 09:26:06;;;;;;;;;;;;;;;1.50;97.98;103874.47;5046908;28;20147;-63
2023/01/24 09:28:33;;;;;;;;;;;;;;;1.43;98.72;103883.97;5047149;28;19917;-64
2023/01/24 09:30:58;;;;;;;;;;;;;;;1.47;98.99;103882.81;5045659;28;20466;-63
2023/01/24 09:33:23;;;;;;;;;;;;;;;1.45;99.12;103878.44;5046771;28;19963;-64
2023/01/24 09:36:07;;;;;;;;;;;;;;;1.53;99.39;103884.25;5046663;28;19917;-62
2023/01/24 09:38:33;;;;;;;;;;;;;;;1.49;99.33;103880.00;5046707;28;19917;-62
2023/01/24 09:41:16;;;;;;;;;;;;;;;1.54;100.00;103881.44;5046190;28;20512;-63
2023/01/24 09:43:42;;;;;;;;;;;;;;;1.52;99.85;103883.38;5046496;28;20004;-62
2023/01/24 09:46:23;;;;;;;;;;;;;;;1.52;100.00;103886.09;5046122;28;20012;-63
2023/01/24 09:48:49;;;;;;;;;;;;;;;1.53;99.93;103882.41;5054565;28;19920;-63
2023/01/24 09:51:19;;;;;;;;;;;;;;;1.56;100.00;103890.31;5066406;28;19999;-62
2023/01/24 09:53:46;;;;;;;;;;;;;;;1.74;97.79;103887.44;5066151;28;19916;-63
2023/01/24 09:56:37;;;;;;;;;;;;;;;1.59;99.42;103892.00;5066305;28;19920;-63
2023/01/24 09:59:12;;;;;;;;;;;;;;;1.59;99.06;103901.97;5065623;28;20287;-63
2023/01/24 10:01:38;;;;;;;;;;;;;;;1.68;99.28;103893.25;5066322;28;20308;-63
2023/01/24 10:04:04;;;;;;;;;;;;;;;1.64;99.34;103905.25;5066639;28;19962;-65
2023/01/24 10:06:30;;;;;;;;;;;;;;;1.63;99.55;103898.09;5065845;28;19923;-62
2023/01/24 10:09:07;;;;;;;;;;;;;;;1.72;98.13;103894.78;5065954;28;19916;-62
2023/01/24 10:11:43;;;;;;;;;;;;;;;1.80;97.78;103890.63;5065444;28;19917;-65
2023/01/24 10:14:28;;;;;;;;;;;;;;;1.63;98.48;103898.09;5065303;28;19952;-65
2023/01/24 10:16:57;;;;;;;;;;;;;;;1.74;97.44;103890.16;5064341;28;19917;-62
2023/01/24 10:19:40;;;;;;;;;;;;;;;2.01;97.46;103892.91;5065981;28;19947;-63
2023/01/24 10:22:26;;;;;;;;;;;;;;;1.76;97.10;103893.63;5066158;28;20003;-64
2023/01/24 10:24:54;;;;;;;;;;;;;;;2.56;92.39;103900.97;5063868;28;19917;-62
2023/01/24 10:27:30;;;;;;;;;;;;;;;1.93;94.53;103896.13;5065460;28;19913;-63
2023/01/24 10:29:58;;;;;;;;;;;;;;;1.76;96.30;103899.91;5064801;28;19916;-64
2023/01/24 10:32:33;;;;;;;;;;;;;;;2.18;95.71;103894.50;5065801;28;20095;-62
2023/01/24 10:35:09;;;;;;;;;;;;;;;1.90;95.19;103895.44;5065287;28;19947;-64
2023/01/24 10:37:38;;;;;;;;;;;;;;;2.20;92.52;103892.59;5065786;28;19916;-63
2023/01/24 10:40:09;;;;;;;;;;;;;;;2.17;93.45;103888.22;5065899;28;19916;-65
2023/01/24 10:42:35;;;;;;;;;;;;;;;1.87;93.64;103887.50;5065556;28;20007;-62
2023/01/24 10:45:10;;;;;;;;;;;;;;;2.55;90.42;103882.97;5064707;28;20028;-63
2023/01/24 10:47:46;;;;;;;;;;;;;;;2.57;88.81;103886.44;5065722;28;20015;-63
2023/01/24 10:50:13;;;;;;;;;;;;;;;2.27;90.38;103878.50;5065725;28;19916;-63
2023/01/24 10:52:39;;;;;;;;;;;;;;;2.52;88.85;103883.16;5065016;28;19912;-64
2023/01/24 10:55:22;;;;;;;;;;;;;;;2.07;90.59;103887.94;5063228;28;19925;-63
2023/01/24 10:57:53;;;;;;;;;;;;;;;1.83;91.94;103884.16;5060536;28;20581;-63
2023/01/24 11:00:30;;;;;;;;;;;;;;;1.61;93.68;103890.03;5063943;28;19920;-62
2023/01/24 11:02:57;;;;;;;;;;;;;;;2.24;91.49;103883.28;5065866;28;20012;-62
2023/01/24 11:05:24;;;;;;;;;;;;;;;2.33;89.88;103883.53;5063769;28;20020;-62
2023/01/24 11:07:52;;;;;;;;;;;;;;;1.75;92.83;103886.47;5065405;28;20298;-62
2023/01/24 11:10:19;;;;;;;;;;;;;;;1.87;91.79;103874.81;5062708;28;19946;-63
2023/01/24 11:12:55;;;;;;;;;;;;;;;2.45;89.95;103876.41;5065675;28;19913;-63
2023/01/24 11:15:30;;;;;;;;;;;;;;;2.27;89.82;103875.78;5065320;28;19916;-62
2023/01/24 11:18:04;;;;;;;;;;;;;;;2.13;90.84;103875.84;5064552;28;20005;-62
2023/01/24 11:20:31;;;;;;;;;;;;;;;2.43;88.81;103867.50;5064336;28;20490;-63
2023/01/24 11:23:16;;;;;;;;;;;;;;;2.47;87.39;103868.16;5064313;28;19916;-63
2023/01/24 11:25:52;;;;;;;;;;;;;;;2.41;88.32;103864.03;5066910;28;19922;-63
2023/01/24 11:28:24;;;;;;;;;;;;;;;1.85;89.77;103865.06;5064604;28;19921;-62
2023/01/24 11:30:50;;;;;;;;;;;;;;;1.75;90.83;103860.22;5051287;28;19928;-64
2023/01/24 11:33:34;;;;;;;;;;;;;;;2.00;91.03;103861.34;5054768;28;19921;-64
2023/01/24 11:36:04;;;;;;;;;;;;;;;1.66;92.71;103859.94;5066303;28;19951;-63
2023/01/24 11:38:36;;;;;;;;;;;;;;;1.58;94.00;103854.16;5066158;28;19927;-65
2023/01/24 11:41:05;;;;;;;;;;;;;;;2.28;90.49;103852.25;5066054;28;20019;-62
2023/01/24 11:43:47;;;;;;;;;;;;;;;2.04;90.40;103846.63;5064527;28;19931;-63
2023/01/24 11:46:24;;;;;;;;;;;;;;;2.37;89.88;103845.34;5069462;28;19917;-63
2023/01/24 11:48:54;;;;;;;;;;;;;;;2.06;90.33;103837.41;5059561;28;19924;-63
2023/01/24 11:51:19;;;;;;;;;;;;;;;1.67;92.46;103845.44;5068518;28;19927;-62
2023/01/24 11:53:51;;;;;;;;;;;;;;;2.49;88.98;103839.97;5068866;28;19999;-62
2023/01/24 11:56:29;;;;;;;;;;;;;;;2.03;91.19;103844.91;5055462;28;20342;-63
2023/01/24 11:59:01;;;;;;;;;;;;;;;1.84;91.96;103847.06;5049632;28;19931;-62
2023/01/24 12:01:34;;;;;;;;;;;;;;;2.04;89.78;103843.91;5049853;28;19917;-62
2023/01/24 12:04:03;;;;;;;;;;;;;;;1.96;92.17;103836.28;5055072;28;19920;-64
2023/01/24 12:06:47;;;;;;;;;;;;;;;1.78;92.28;103834.78;5068921;28;20418;-63
2023/01/24 12:09:16;;;;;;;;;;;;;;;2.34;89.62;103824.75;5070649;28;19924;-63
2023/01/24 12:11:48;;;;;;;;;;;;;;;2.27;89.83;103817.97;5066872;28;20054;-62
2023/01/24 12:14:26;;;;;;;;;;;;;;;1.79;92.61;103826.56;5058347;28;20307;-63
2023/01/24 12:16:58;;;;;;;;;;;;;;;1.81;93.42;103818.31;5065613;28;19921;-62
2023/01/24 12:19:42;;;;;;;;;;;;;;;1.85;93.87;103800.03;5068264;28;19917;-63
2023/01/24 12:22:14;;;;;;;;;;;;;;;1.96;93.84;103814.59;5068372;28;20432;-65
2023/01/24 12:24:41;;;;;;;;;;;;;;;1.92;94.29;103807.63;5067730;28;19916;-63
2023/01/24 12:27:09;;;;;;;;;;;;;;;1.93;94.56;103806.69;5067568;28;19916;-63
2023/01/24 12:29:42;;;;;;;;;;;;;;;2.02;93.11;103800.63;5067684;28;19923;-63
2023/01/24 12:32:07;;;;;;;;;;;;;;;2.04;92.73;103806.84;5066328;28;19920;-64
2023/01/24 12:34:43;;;;;;;;;;;;;;;2.63;88.50;103792.88;5064037;28;19936;-63
2023/01/24 12:37:08;;;;;;;;;;;;;;;2.48;89.30;103793.94;5062882;28;20479;-65
2023/01/24 12:39:37;;;;;;;;;;;;;;;2.44;88.08;103790.59;5068923;28;20212;-62
2023/01/24 12:42:08;;;;;;;;;;;;;;;2.71;86.82;103792.38;5066824;28;20045;-62
2023/01/24 12:44:38;;;;;;;;;;;;;;;2.62;85.90;103784.84;5065961;28;19999;-62
2023/01/24 12:47:03;;;;;;;;;;;;;;;2.08;89.09;103797.53;5067981;28;19951;-63
2023/01/24 12:49:37;;;;;;;;;;;;;;;2.47;87.93;103786.78;5068079;28;19917;-62
2023/01/24 12:52:21;;;;;;;;;;;;;;;2.37;87.89;103791.97;5063559;28;19924;-64
2023/01/24 12:54:53;;;;;;;;;;;;;;;2.04;88.02;103787.84;5067065;28;19917;-63
2023/01/24 12:57:27;;;;;;;;;;;;;;;1.80;90.61;103782.22;5067580;28;19947;-62
2023/01/24 12:59:53;;;;;;;;;;;;;;;2.01;91.29;103779.91;5066767;28;19964;-63
2023/01/24 13:02:37;;;;;;;;;;;;;;;1.92;89.99;103777.81;5067006;28;19960;-65
2023/01/24 13:05:13;;;;;;;;;;;;;;;1.97;89.18;103772.97;5068102;28;19962;-63
2023/01/24 13:07:43;;;;;;;;;;;;;;;2.02;89.71;103778.06;5049292;28;19960;-64
2023/01/24 13:10:12;;;;;;;;;;;;;;;1.72;91.88;103781.84;5051584;28;19946;-63
2023/01/24 13:12:38;;;;;;;;;;;;;;;1.79;92.10;103779.63;5062480;28;20337;-62
2023/01/24 13:15:08;;;;;;;;;;;;;;;2.19;89.20;103771.53;5068940;28;19924;-63
2023/01/24 13:17:46;;;;;;;;;;;;;;;2.01;91.08;103765.50;5067386;28;19924;-63
2023/01/24 13:20:20;;;;;;;;;;;;;;;1.89;91.17;103763.63;5049405;28;19967;-63
2023/01/24 13:22:46;;;;;;;;;;;;;;;1.95;92.50;103772.22;5061936;28;19952;-64